createdAt,value
2022-12-14T00:01:40.979Z,0.10
2022-12-14T00:04:07.879Z,0.10
2022-12-14T00:06:35.001Z,0.10
2022-12-14T00:09:04.258Z,0.10
2022-12-14T00:11:33.428Z,0.10
2022-12-14T00:14:03.380Z,0.10
2022-12-14T00:16:33.616Z,0.10
2022-12-14T00:19:01.939Z,0.10
2022-12-14T00:21:29.509Z,0.10
2022-12-14T00:24:00.337Z,0.00
2022-12-14T00:26:31.184Z,0.00
2022-12-14T00:29:00.668Z,0.00
2022-12-14T00:31:28.203Z,0.00
2022-12-14T00:33:55.416Z,0.00
2022-12-14T00:36:22.599Z,0.00
2022-12-14T00:38:49.475Z,0.00
2022-12-14T00:41:16.360Z,0.00
2022-12-14T00:43:43.417Z,0.00
2022-12-14T00:46:10.397Z,0.00
2022-12-14T00:48:37.459Z,0.00
2022-12-14T00:51:04.397Z,0.00
2022-12-14T00:53:31.772Z,0.00
2022-12-14T00:56:06.591Z,-0.10
2022-12-14T00:58:34.052Z,-0.10
2022-12-14T01:01:14.763Z,-0.10
2022-12-14T01:03:41.963Z,-0.10
2022-12-14T01:06:22.259Z,-0.10
2022-12-14T01:08:49.652Z,-0.10
2022-12-14T01:11:16.563Z,-0.10
2022-12-14T01:13:43.465Z,-0.10
2022-12-14T01:16:14.793Z,-0.10
2022-12-14T01:18:43.616Z,-0.10
2022-12-14T01:21:12.095Z,-0.10
2022-12-14T01:23:39.636Z,-0.10
2022-12-14T01:26:06.778Z,-0.10
2022-12-14T01:28:34.995Z,-0.10
2022-12-14T01:31:21.316Z,-0.10
2022-12-14T01:33:49.084Z,-0.10
2022-12-14T01:36:22.742Z,-0.10
2022-12-14T01:38:55.219Z,-0.10
2022-12-14T01:41:27.768Z,-0.10
2022-12-14T01:44:24.275Z,-0.10
2022-12-14T01:47:11.976Z,-0.10
2022-12-14T01:49:43.257Z,-0.10
2022-12-14T01:52:21.493Z,-0.10
2022-12-14T01:54:59.620Z,-0.20
2022-12-14T01:57:34.190Z,-0.20
2022-12-14T02:00:06.904Z,-0.20
2022-12-14T02:02:37.508Z,-0.20
2022-12-14T02:05:08.174Z,-0.20
2022-12-14T02:07:35.096Z,-0.20
2022-12-14T02:10:05.874Z,-0.20
2022-12-14T02:12:41.261Z,-0.20
2022-12-14T02:15:08.800Z,-0.30
2022-12-14T02:17:35.718Z,-0.30
2022-12-14T02:20:04.356Z,-0.30
2022-12-14T02:23:02.224Z,-0.30
2022-12-14T02:26:15.752Z,-0.30
2022-12-14T02:29:15.280Z,-0.30
2022-12-14T02:32:26.387Z,-0.30
2022-12-14T02:35:19.746Z,-0.30
2022-12-14T02:38:28.172Z,-0.30
2022-12-14T02:41:17.874Z,-0.30
2022-12-14T02:44:18.000Z,-0.30
2022-12-14T02:46:58.469Z,-0.40
2022-12-14T02:49:51.659Z,-0.30
2022-12-14T02:52:53.526Z,-0.30
2022-12-14T02:55:43.102Z,-0.40
2022-12-14T02:58:22.190Z,-0.30
2022-12-14T03:00:49.857Z,-0.40
2022-12-14T03:03:17.326Z,-0.40
2022-12-14T03:05:58.846Z,-0.40
2022-12-14T03:08:28.285Z,-0.40
2022-12-14T03:11:05.408Z,-0.40
2022-12-14T03:13:49.150Z,-0.40
2022-12-14T03:16:28.616Z,-0.40
2022-12-14T03:19:00.692Z,-0.30
2022-12-14T03:21:36.479Z,-0.40
2022-12-14T03:24:10.266Z,-0.30
2022-12-14T03:26:56.518Z,-0.30
2022-12-14T03:29:32.811Z,-0.30
2022-12-14T03:32:06.543Z,-0.30
2022-12-14T03:34:43.380Z,-0.40
2022-12-14T03:37:16.534Z,-0.40
2022-12-14T03:39:45.483Z,-0.40
2022-12-14T03:42:23.697Z,-0.40
2022-12-14T03:45:11.916Z,-0.40
2022-12-14T03:48:15.512Z,-0.40
2022-12-14T03:51:19.626Z,-0.50
2022-12-14T03:54:15.852Z,-0.50
2022-12-14T03:57:07.888Z,-0.50
2022-12-14T04:00:07.463Z,-0.50
2022-12-14T04:02:51.564Z,-0.60
2022-12-14T04:05:48.764Z,-0.60
2022-12-14T04:08:26.974Z,-0.60
2022-12-14T04:11:15.794Z,-0.60
2022-12-14T04:14:08.615Z,-0.60
2022-12-14T04:16:58.688Z,-0.60
2022-12-14T04:19:37.775Z,-0.60
2022-12-14T04:22:14.122Z,-0.60
2022-12-14T04:25:12.989Z,-0.60
2022-12-14T04:27:50.299Z,-0.60
2022-12-14T04:30:17.639Z,-0.70
2022-12-14T04:32:50.382Z,-0.70
2022-12-14T04:35:35.153Z,-0.70
2022-12-14T04:38:13.838Z,-0.70
2022-12-14T04:40:49.425Z,-0.70
2022-12-14T04:43:21.299Z,-0.70
2022-12-14T04:46:00.199Z,-0.70
2022-12-14T04:49:08.784Z,-0.70
2022-12-14T04:51:59.386Z,-0.70
2022-12-14T04:55:05.921Z,-0.70
2022-12-14T04:57:56.619Z,-0.80
2022-12-14T05:00:24.275Z,-0.80
2022-12-14T05:03:26.360Z,-0.80
2022-12-14T05:06:08.034Z,-0.80
2022-12-14T05:09:12.184Z,-0.90
2022-12-14T05:12:11.083Z,-1.00
2022-12-14T05:14:46.824Z,-1.00
2022-12-14T05:17:14.993Z,-1.00
2022-12-14T05:19:49.918Z,-1.00
2022-12-14T05:22:18.052Z,-1.00
2022-12-14T05:24:44.922Z,-1.10
2022-12-14T05:27:11.826Z,-1.10
2022-12-14T05:29:38.709Z,-1.10
2022-12-14T05:32:05.755Z,-1.10
2022-12-14T05:34:32.670Z,-1.10
2022-12-14T05:36:59.567Z,-1.10
2022-12-14T05:39:26.474Z,-1.10
2022-12-14T05:41:53.460Z,-1.20
2022-12-14T05:44:20.934Z,-1.20
2022-12-14T05:46:47.916Z,-1.20
2022-12-14T05:49:14.813Z,-1.20
2022-12-14T05:51:41.713Z,-1.20
2022-12-14T05:54:08.772Z,-1.20
2022-12-14T05:56:35.667Z,-1.30
2022-12-14T05:59:02.670Z,-1.30
2022-12-14T06:01:29.643Z,-1.30
2022-12-14T06:03:56.653Z,-1.30
2022-12-14T06:06:23.657Z,-1.30
2022-12-14T06:08:50.570Z,-1.30
2022-12-14T06:11:20.773Z,-1.30
2022-12-14T06:13:48.379Z,-1.30
2022-12-14T06:16:22.957Z,-1.30
2022-12-14T06:18:53.394Z,-1.30
2022-12-14T06:21:25.515Z,-1.30
2022-12-14T06:23:52.550Z,-1.40
2022-12-14T06:26:19.598Z,-1.40
2022-12-14T06:28:46.756Z,-1.40
2022-12-14T06:31:23.470Z,-1.40
2022-12-14T06:33:51.421Z,-1.40
2022-12-14T06:36:27.391Z,-1.40
2022-12-14T06:38:56.020Z,-1.40
2022-12-14T06:41:24.406Z,-1.40
2022-12-14T06:43:51.987Z,-1.40
2022-12-14T06:46:22.120Z,-1.40
2022-12-14T06:48:52.063Z,-1.50
2022-12-14T06:51:20.002Z,-1.40
2022-12-14T06:53:50.251Z,-1.40
2022-12-14T06:56:18.923Z,-1.50
2022-12-14T06:58:46.328Z,-1.50
2022-12-14T07:01:21.967Z,-1.50
2022-12-14T07:03:55.046Z,-1.50
2022-12-14T07:06:23.234Z,-1.60
2022-12-14T07:08:54.230Z,-1.60
2022-12-14T07:11:22.051Z,-1.70
2022-12-14T07:13:49.098Z,-1.70
2022-12-14T07:16:20.433Z,-1.80
2022-12-14T07:18:48.151Z,-1.80
2022-12-14T07:21:17.364Z,-1.80
2022-12-14T07:23:46.228Z,-1.80
2022-12-14T07:26:18.103Z,-1.80
2022-12-14T07:28:46.289Z,-1.90
2022-12-14T07:31:24.739Z,-1.90
2022-12-14T07:33:57.955Z,-1.90
2022-12-14T07:36:27.620Z,-2.00
2022-12-14T07:38:55.780Z,-2.00
2022-12-14T07:41:30.611Z,-2.00
2022-12-14T07:44:00.223Z,-2.00
2022-12-14T07:46:30.242Z,-2.00
2022-12-14T07:48:58.884Z,-2.00
2022-12-14T07:51:32.433Z,-2.00
2022-12-14T07:54:01.274Z,-2.00
2022-12-14T07:56:32.264Z,-2.00
2022-12-14T07:59:01.022Z,-2.00
2022-12-14T08:01:33.943Z,-2.00
2022-12-14T08:04:30.397Z,-2.00
2022-12-14T08:06:58.713Z,-1.90
2022-12-14T08:09:25.597Z,-2.00
2022-12-14T08:11:52.484Z,-1.90
2022-12-14T08:14:19.765Z,-1.90
2022-12-14T08:16:48.648Z,-1.90
2022-12-14T08:19:16.658Z,-1.80
2022-12-14T08:21:43.588Z,-1.80
2022-12-14T08:24:13.208Z,-1.80
2022-12-14T08:26:40.107Z,-1.70
2022-12-14T08:29:07.289Z,-1.70
2022-12-14T08:31:34.408Z,-1.60
2022-12-14T08:34:02.499Z,-1.60
2022-12-14T08:36:34.344Z,-1.60
2022-12-14T08:39:10.235Z,-1.60
2022-12-14T08:41:37.145Z,-1.50
2022-12-14T08:44:05.514Z,-1.50
2022-12-14T08:46:35.194Z,-1.50
2022-12-14T08:49:02.249Z,-1.50
2022-12-14T08:51:29.604Z,-1.40
2022-12-14T08:53:57.514Z,-1.40
2022-12-14T08:56:28.129Z,-1.30
2022-12-14T08:58:56.475Z,-1.30
2022-12-14T09:01:32.708Z,-1.30
2022-12-14T09:04:07.665Z,-1.20
2022-12-14T09:06:38.294Z,-1.20
2022-12-14T09:09:13.290Z,-1.20
2022-12-14T09:11:42.352Z,-1.10
2022-12-14T09:14:09.236Z,-1.00
2022-12-14T09:16:37.576Z,-1.00
2022-12-14T09:19:04.638Z,-1.00
2022-12-14T09:21:31.726Z,-1.00
2022-12-14T09:23:59.936Z,-0.90
2022-12-14T09:26:27.601Z,-0.90
2022-12-14T09:28:56.623Z,-0.80
2022-12-14T09:31:26.840Z,-0.80
2022-12-14T09:33:54.935Z,-0.70
2022-12-14T09:36:27.467Z,-0.70
2022-12-14T09:38:55.383Z,-0.60
2022-12-14T09:41:34.401Z,-0.60
2022-12-14T09:44:38.545Z,-0.60
2022-12-14T09:47:20.048Z,-0.50
2022-12-14T09:49:49.901Z,-0.40
2022-12-14T09:52:45.471Z,-0.40
2022-12-14T09:55:31.265Z,-0.30
2022-12-14T09:58:16.500Z,-0.30
2022-12-14T10:01:15.163Z,-0.30
2022-12-14T10:04:16.328Z,-0.20
2022-12-14T10:07:19.984Z,-0.20
2022-12-14T10:10:16.137Z,-0.10
2022-12-14T10:13:04.316Z,-0.10
2022-12-14T10:15:54.949Z,-0.10
2022-12-14T10:19:02.155Z,0.00
2022-12-14T10:21:52.735Z,0.00
2022-12-14T10:24:30.443Z,0.00
2022-12-14T10:26:57.579Z,0.00
2022-12-14T10:29:42.613Z,0.00
2022-12-14T10:32:38.601Z,0.00
2022-12-14T10:35:14.961Z,0.00
2022-12-14T10:37:47.803Z,0.00
2022-12-14T10:40:49.460Z,0.00
2022-12-14T10:43:45.943Z,0.00
2022-12-14T10:46:42.454Z,0.00
2022-12-14T10:49:40.005Z,0.10
2022-12-14T10:52:34.046Z,0.10
2022-12-14T10:55:07.068Z,0.20
2022-12-14T10:57:33.959Z,0.30
2022-12-14T11:00:09.195Z,0.30
2022-12-14T11:02:42.989Z,0.40
2022-12-14T11:05:25.022Z,0.40
2022-12-14T11:07:51.906Z,0.40
2022-12-14T11:10:24.730Z,0.40
2022-12-14T11:13:18.021Z,0.50
2022-12-14T11:15:48.522Z,0.50
2022-12-14T11:18:15.412Z,0.50
2022-12-14T11:21:01.881Z,0.60
2022-12-14T11:23:35.882Z,0.60
2022-12-14T11:26:07.072Z,0.60
2022-12-14T11:28:40.135Z,0.60
2022-12-14T11:31:12.422Z,0.70
2022-12-14T11:33:50.591Z,0.70
2022-12-14T11:36:36.080Z,0.70
2022-12-14T11:39:15.096Z,0.70
2022-12-14T11:41:48.951Z,0.70
2022-12-14T11:44:15.748Z,0.80
2022-12-14T11:47:02.106Z,0.80
2022-12-14T11:49:45.111Z,0.80
2022-12-14T11:52:22.215Z,0.90
2022-12-14T11:54:55.215Z,0.90
2022-12-14T11:57:28.492Z,1.00
2022-12-14T12:00:02.126Z,1.00
2022-12-14T12:02:40.018Z,1.00
2022-12-14T12:05:20.030Z,1.10
2022-12-14T12:07:49.843Z,1.10
2022-12-14T12:10:22.993Z,1.10
2022-12-14T12:13:00.362Z,1.20
2022-12-14T12:15:37.402Z,1.20
2022-12-14T12:18:46.292Z,1.20
2022-12-14T12:21:30.191Z,1.30
2022-12-14T12:24:21.816Z,1.40
2022-12-14T12:26:58.660Z,1.40
2022-12-14T12:29:48.458Z,1.40
2022-12-14T12:32:28.585Z,1.40
2022-12-14T12:35:13.407Z,1.40
2022-12-14T12:37:57.613Z,1.40
2022-12-14T12:40:54.940Z,1.40
2022-12-14T12:43:39.092Z,1.40
2022-12-14T12:46:16.704Z,1.40
2022-12-14T12:48:53.445Z,1.50
2022-12-14T12:51:28.799Z,1.60
2022-12-14T12:54:15.830Z,1.60
2022-12-14T12:56:48.457Z,1.60
2022-12-14T12:59:35.540Z,1.60
2022-12-14T13:02:30.023Z,1.70
2022-12-14T13:05:06.998Z,1.70
2022-12-14T13:07:53.980Z,1.70
2022-12-14T13:10:30.860Z,1.70
2022-12-14T13:13:07.144Z,1.80
2022-12-14T13:15:52.608Z,1.70
2022-12-14T13:18:57.377Z,1.70
2022-12-14T13:21:30.826Z,1.80
2022-12-14T13:23:58.128Z,1.80
2022-12-14T13:27:29.976Z,1.70
2022-12-14T13:30:45.036Z,1.70
2022-12-14T13:33:39.687Z,1.70
2022-12-14T13:36:49.810Z,1.70
2022-12-14T13:39:57.234Z,1.60
2022-12-14T13:43:13.091Z,1.60
2022-12-14T13:45:43.925Z,1.50
2022-12-14T13:48:28.105Z,1.50
2022-12-14T13:51:02.028Z,1.50
2022-12-14T13:53:41.330Z,1.40
2022-12-14T13:56:09.085Z,1.40
2022-12-14T13:58:44.619Z,1.40
2022-12-14T14:01:48.399Z,1.40
2022-12-14T14:04:29.687Z,1.40
2022-12-14T14:07:26.693Z,1.40
2022-12-14T14:09:59.524Z,1.30
2022-12-14T14:12:37.043Z,1.30
2022-12-14T14:15:33.014Z,1.30
2022-12-14T14:18:14.943Z,1.30
2022-12-14T14:20:58.625Z,1.30
2022-12-14T14:23:31.853Z,1.30
2022-12-14T14:26:22.661Z,1.20
2022-12-14T14:29:23.470Z,1.20
2022-12-14T14:31:56.390Z,1.20
2022-12-14T14:34:43.785Z,1.20
2022-12-14T14:37:19.782Z,1.20
2022-12-14T14:40:16.733Z,1.10
2022-12-14T14:43:18.058Z,1.10
2022-12-14T14:45:52.710Z,1.10
2022-12-14T14:48:38.865Z,1.00
2022-12-14T14:51:34.531Z,1.00
2022-12-14T14:54:37.601Z,1.00
2022-12-14T14:57:03.223Z,0.90
2022-12-14T14:59:51.128Z,0.90
2022-12-14T15:02:40.423Z,0.90
2022-12-14T15:08:04.305Z,0.80
2022-12-14T15:10:44.606Z,0.80
2022-12-14T15:13:26.198Z,0.80
2022-12-14T15:15:56.303Z,0.80
2022-12-14T15:18:26.711Z,0.70
2022-12-14T15:21:06.800Z,0.70
2022-12-14T15:23:37.682Z,0.70
2022-12-14T15:26:16.901Z,0.70
2022-12-14T15:28:55.059Z,0.60
2022-12-14T15:31:41.921Z,0.60
2022-12-14T15:34:18.173Z,0.60
2022-12-14T15:36:45.588Z,0.50
2022-12-14T15:39:43.502Z,0.50
2022-12-14T15:42:15.442Z,0.50
2022-12-14T15:44:54.894Z,0.50
2022-12-14T15:47:30.481Z,0.40
2022-12-14T15:50:22.495Z,0.40
2022-12-14T15:52:51.201Z,0.40
2022-12-14T15:55:35.609Z,0.30
2022-12-14T15:58:20.731Z,0.30
2022-12-14T16:00:51.716Z,0.30
2022-12-14T16:03:32.705Z,0.20
2022-12-14T16:06:00.967Z,0.20
2022-12-14T16:08:30.904Z,0.10
2022-12-14T16:11:01.548Z,0.10
2022-12-14T16:13:35.044Z,0.10
2022-12-14T16:16:11.686Z,0.00
2022-12-14T16:18:50.738Z,0.00
2022-12-14T16:21:34.388Z,0.00
2022-12-14T16:24:22.370Z,0.00
2022-12-14T16:27:00.218Z,-0.10
2022-12-14T16:29:32.775Z,-0.10
2022-12-14T16:32:12.939Z,-0.20
2022-12-14T16:34:47.542Z,-0.30
2022-12-14T16:37:33.931Z,-0.30
2022-12-14T16:40:01.246Z,-0.40
2022-12-14T16:42:31.577Z,-0.40
2022-12-14T16:44:58.453Z,-0.50
2022-12-14T16:47:34.393Z,-0.40
2022-12-14T16:50:01.268Z,-0.50
2022-12-14T16:52:36.735Z,-0.60
2022-12-14T16:55:19.355Z,-0.60
2022-12-14T16:57:49.163Z,-0.60
2022-12-14T17:00:27.721Z,-0.70
2022-12-14T17:03:20.717Z,-0.70
2022-12-14T17:05:54.123Z,-0.80
2022-12-14T17:08:21.082Z,-0.90
2022-12-14T17:10:48.238Z,-0.90
2022-12-14T17:13:15.161Z,-1.00
2022-12-14T17:16:03.838Z,-1.00
2022-12-14T17:18:35.397Z,-1.10
2022-12-14T17:21:02.559Z,-1.10
2022-12-14T17:23:29.890Z,-1.20
2022-12-14T17:25:57.487Z,-1.20
2022-12-14T17:28:31.058Z,-1.30
2022-12-14T17:31:01.580Z,-1.30
2022-12-14T17:33:30.497Z,-1.40
2022-12-14T17:35:57.768Z,-1.40
2022-12-14T17:38:25.807Z,-1.50
2022-12-14T17:40:53.907Z,-1.60
2022-12-14T17:43:26.727Z,-1.70
2022-12-14T17:45:54.554Z,-1.70
2022-12-14T17:48:21.512Z,-1.80
2022-12-14T17:50:50.004Z,-1.80
2022-12-14T17:53:25.160Z,-1.90
2022-12-14T17:55:52.078Z,-1.90
2022-12-14T17:58:19.028Z,-1.90
2022-12-14T18:01:00.910Z,-2.00
2022-12-14T18:03:36.505Z,-2.10
2022-12-14T18:06:04.653Z,-2.10
2022-12-14T18:08:31.571Z,-2.10
2022-12-14T18:11:02.600Z,-2.20
2022-12-14T18:13:31.695Z,-2.20
2022-12-14T18:16:00.517Z,-2.20
2022-12-14T18:18:29.427Z,-2.20
2022-12-14T18:21:02.775Z,-2.20
2022-12-14T18:23:31.700Z,-2.30
2022-12-14T18:26:00.031Z,-2.30
2022-12-14T18:28:27.344Z,-2.30
2022-12-14T18:31:03.747Z,-2.30
2022-12-14T18:33:33.246Z,-2.30
2022-12-14T18:36:00.862Z,-2.40
2022-12-14T18:38:27.840Z,-2.40
2022-12-14T18:40:58.473Z,-2.40
2022-12-14T18:43:28.091Z,-2.40
2022-12-14T18:45:56.345Z,-2.50
2022-12-14T18:48:25.098Z,-2.50
2022-12-14T18:50:54.077Z,-2.50
2022-12-14T18:53:23.486Z,-2.60
2022-12-14T18:55:50.521Z,-2.60
2022-12-14T18:58:27.525Z,-2.60
2022-12-14T19:00:57.839Z,-2.60
2022-12-14T19:03:26.345Z,-2.70
2022-12-14T19:06:34.392Z,-2.70
2022-12-14T19:08:51.224Z,-2.70
2022-12-14T19:11:34.315Z,-2.70
2022-12-14T19:14:02.074Z,-2.80
2022-12-14T19:16:29.516Z,-2.80
2022-12-14T19:18:56.853Z,-2.80
2022-12-14T19:21:25.727Z,-2.90
2022-12-14T19:23:52.675Z,-2.90
2022-12-14T19:26:19.557Z,-2.90
2022-12-14T19:28:46.443Z,-3.00
2022-12-14T19:31:13.425Z,-2.90
2022-12-14T19:33:40.372Z,-3.00
2022-12-14T19:36:08.623Z,-3.00
2022-12-14T19:38:36.897Z,-3.00
2022-12-14T19:41:11.101Z,-3.10
2022-12-14T19:43:39.372Z,-3.00
2022-12-14T19:46:08.145Z,-3.10
2022-12-14T19:48:35.390Z,-3.10
2022-12-14T19:51:07.880Z,-3.10
2022-12-14T19:53:35.751Z,-3.20
2022-12-14T19:56:03.741Z,-3.20
2022-12-14T19:58:30.686Z,-3.30
2022-12-14T20:00:57.947Z,-3.30
2022-12-14T20:03:25.330Z,-3.30
2022-12-14T20:05:54.888Z,-3.30
2022-12-14T20:08:22.895Z,-3.30
2022-12-14T20:10:50.337Z,-3.30
2022-12-14T20:13:17.251Z,-3.40
2022-12-14T20:15:53.697Z,-3.40
2022-12-14T20:18:23.080Z,-3.40
2022-12-14T20:20:52.130Z,-3.40
2022-12-14T20:23:21.544Z,-3.40
2022-12-14T20:25:49.482Z,-3.40
2022-12-14T20:28:16.426Z,-3.40
2022-12-14T20:30:47.741Z,-3.40
2022-12-14T20:33:14.697Z,-3.40
2022-12-14T20:35:41.621Z,-3.50
2022-12-14T20:38:08.485Z,-3.50
2022-12-14T20:40:38.859Z,-3.50
2022-12-14T20:43:07.104Z,-3.50
2022-12-14T20:45:42.338Z,-3.50
2022-12-14T20:48:09.335Z,-3.60
2022-12-14T20:50:42.215Z,-3.60
2022-12-14T20:53:09.274Z,-3.60
2022-12-14T20:55:36.422Z,-3.60
2022-12-14T20:58:03.367Z,-3.60
2022-12-14T21:00:30.383Z,-3.60
2022-12-14T21:02:57.504Z,-3.60
2022-12-14T21:05:24.822Z,-3.60
2022-12-14T21:07:52.018Z,-3.60
2022-12-14T21:10:19.026Z,-3.60
2022-12-14T21:12:48.736Z,-3.70
2022-12-14T21:15:15.697Z,-3.70
2022-12-14T21:17:42.584Z,-3.70
2022-12-14T21:20:11.413Z,-3.70
2022-12-14T21:22:38.601Z,-3.70
2022-12-14T21:25:07.167Z,-3.80
2022-12-14T21:27:40.706Z,-3.80
2022-12-14T21:30:11.210Z,-3.80
2022-12-14T21:32:39.019Z,-3.80
2022-12-14T21:35:06.688Z,-3.80
2022-12-14T21:37:33.602Z,-3.90
2022-12-14T21:40:03.267Z,-3.90
2022-12-14T21:42:30.128Z,-3.90
2022-12-14T21:44:57.646Z,-3.90
2022-12-14T21:47:29.868Z,-4.00
2022-12-14T21:49:57.279Z,-4.00
2022-12-14T21:52:26.728Z,-4.00
2022-12-14T21:54:53.616Z,-4.00
2022-12-14T21:57:42.605Z,-4.00
2022-12-14T22:00:11.104Z,-4.10
2022-12-14T22:02:41.849Z,-4.10
2022-12-14T22:05:10.236Z,-4.20
2022-12-14T22:07:37.127Z,-4.20
2022-12-14T22:10:04.734Z,-4.20
2022-12-14T22:12:31.827Z,-4.30
2022-12-14T22:14:58.702Z,-4.30
2022-12-14T22:17:25.586Z,-4.30
2022-12-14T22:19:54.289Z,-4.30
2022-12-14T22:22:21.245Z,-4.40
2022-12-14T22:24:49.700Z,-4.40
2022-12-14T22:27:16.863Z,-4.40
2022-12-14T22:29:43.731Z,-4.40
2022-12-14T22:32:14.682Z,-4.40
2022-12-14T22:34:41.961Z,-4.50
2022-12-14T22:37:09.029Z,-4.50
2022-12-14T22:39:36.099Z,-4.50
2022-12-14T22:42:03.010Z,-4.50
2022-12-14T22:44:29.975Z,-4.60
2022-12-14T22:46:57.713Z,-4.60
2022-12-14T22:49:24.662Z,-4.60
2022-12-14T22:51:51.638Z,-4.60
2022-12-14T22:54:24.688Z,-4.60
2022-12-14T22:57:04.730Z,-4.70
2022-12-14T22:59:58.548Z,-4.70
2022-12-14T23:02:25.975Z,-4.70
2022-12-14T23:04:53.105Z,-4.80
2022-12-14T23:07:20.023Z,-4.80
2022-12-14T23:10:05.287Z,-4.80
2022-12-14T23:12:50.820Z,-4.80
2022-12-14T23:15:36.261Z,-4.90
2022-12-14T23:18:26.550Z,-4.90
2022-12-14T23:21:13.054Z,-4.90
2022-12-14T23:24:01.419Z,-4.90
2022-12-14T23:26:47.501Z,-4.90
2022-12-14T23:29:33.446Z,-5.00
2022-12-14T23:32:18.726Z,-5.00
2022-12-14T23:35:04.312Z,-5.10
2022-12-14T23:37:49.781Z,-5.00
2022-12-14T23:40:35.504Z,-5.10
2022-12-14T23:43:33.796Z,-5.10
2022-12-14T23:46:20.818Z,-5.10
2022-12-14T23:49:10.534Z,-5.20
2022-12-14T23:52:00.980Z,-5.20
2022-12-14T23:54:46.138Z,-5.20
2022-12-14T23:57:31.772Z,-5.30
